createdAt,value
2022-12-18T00:01:41.540Z,30.29
2022-12-18T00:04:08.069Z,30.39
2022-12-18T00:06:34.498Z,30.91
2022-12-18T00:09:00.834Z,29.82
2022-12-18T00:11:27.220Z,30.35
2022-12-18T00:13:53.609Z,30.28
2022-12-18T00:16:20.018Z,29.85
2022-12-18T00:18:46.398Z,30.63
2022-12-18T00:21:12.726Z,30.46
2022-12-18T00:23:39.456Z,30.52
2022-12-18T00:26:06.146Z,30.20
2022-12-18T00:28:32.520Z,31.12
2022-12-18T00:30:58.902Z,30.69
2022-12-18T00:33:25.244Z,30.51
2022-12-18T00:35:51.629Z,30.71
2022-12-18T00:38:18.036Z,30.77
2022-12-18T00:40:44.459Z,30.84
2022-12-18T00:43:10.801Z,30.14
2022-12-18T00:45:37.217Z,30.11
2022-12-18T00:48:03.623Z,30.26
2022-12-18T00:50:31.012Z,29.93
2022-12-18T00:52:57.488Z,30.06
2022-12-18T00:55:23.874Z,30.52
2022-12-18T00:57:50.223Z,30.04
2022-12-18T01:00:16.591Z,29.60
2022-12-18T01:02:43.163Z,30.85
2022-12-18T01:05:09.726Z,31.18
2022-12-18T01:07:36.127Z,30.73
2022-12-18T01:10:02.512Z,30.88
2022-12-18T01:12:28.908Z,31.42
2022-12-18T01:14:55.276Z,31.36
2022-12-18T01:17:21.666Z,30.98
2022-12-18T01:19:48.027Z,31.74
2022-12-18T01:22:14.379Z,32.53
2022-12-18T01:24:40.761Z,31.58
2022-12-18T01:27:07.108Z,31.59
2022-12-18T01:29:33.476Z,31.26
2022-12-18T01:31:59.920Z,31.97
2022-12-18T01:34:26.384Z,31.42
2022-12-18T01:36:52.764Z,32.20
2022-12-18T01:39:19.097Z,32.48
2022-12-18T01:41:45.434Z,30.80
2022-12-18T01:44:11.765Z,31.49
2022-12-18T01:46:38.141Z,30.50
2022-12-18T01:49:04.529Z,30.13
2022-12-18T01:51:30.918Z,30.14
2022-12-18T01:53:57.255Z,30.55
2022-12-18T01:56:23.591Z,30.21
2022-12-18T01:58:49.945Z,31.28
2022-12-18T02:01:16.464Z,31.79
2022-12-18T02:03:42.958Z,31.47
2022-12-18T02:06:09.367Z,31.17
2022-12-18T02:08:35.717Z,31.55
2022-12-18T02:11:02.078Z,31.71
2022-12-18T02:13:28.474Z,31.08
2022-12-18T02:15:54.862Z,31.63
2022-12-18T02:18:21.255Z,31.73
2022-12-18T02:20:47.638Z,32.02
2022-12-18T02:23:13.983Z,32.43
2022-12-18T02:25:40.320Z,32.06
2022-12-18T02:28:06.653Z,31.71
2022-12-18T02:30:33.032Z,32.11
2022-12-18T02:32:59.438Z,32.16
2022-12-18T02:35:25.813Z,32.35
2022-12-18T02:37:52.191Z,32.51
2022-12-18T02:40:18.589Z,32.03
2022-12-18T02:42:44.977Z,32.02
2022-12-18T02:45:11.377Z,32.50
2022-12-18T02:47:37.730Z,32.08
2022-12-18T02:50:04.065Z,31.76
2022-12-18T02:52:30.438Z,32.21
2022-12-18T02:54:56.827Z,30.66
2022-12-18T02:57:23.181Z,32.22
2022-12-18T02:59:49.525Z,32.10
2022-12-18T03:02:15.994Z,32.34
2022-12-18T03:04:42.519Z,32.22
2022-12-18T03:07:08.913Z,32.56
2022-12-18T03:09:35.254Z,31.55
2022-12-18T03:12:01.595Z,31.79
2022-12-18T03:14:27.948Z,32.57
2022-12-18T03:16:54.434Z,32.34
2022-12-18T03:19:20.870Z,32.26
2022-12-18T03:21:47.244Z,32.38
2022-12-18T03:24:13.600Z,31.87
2022-12-18T03:26:39.986Z,31.92
2022-12-18T03:29:06.333Z,31.59
2022-12-18T03:31:32.703Z,32.00
2022-12-18T03:33:59.118Z,32.08
2022-12-18T03:36:25.551Z,32.63
2022-12-18T03:38:51.942Z,32.89
2022-12-18T03:41:18.450Z,33.08
2022-12-18T03:43:44.824Z,32.25
2022-12-18T03:46:11.210Z,31.53
2022-12-18T03:48:37.582Z,30.84
2022-12-18T03:51:03.919Z,32.19
2022-12-18T03:53:30.256Z,32.02
2022-12-18T03:55:56.640Z,31.95
2022-12-18T03:58:22.996Z,32.55
2022-12-18T04:00:49.397Z,47.94
2022-12-18T04:03:15.861Z,33.23
2022-12-18T04:05:42.262Z,30.91
2022-12-18T04:08:08.644Z,31.81
2022-12-18T04:10:35.031Z,32.12
2022-12-18T04:13:01.436Z,30.31
2022-12-18T04:15:27.854Z,30.88
2022-12-18T04:17:54.242Z,29.60
2022-12-18T04:20:20.576Z,29.48
2022-12-18T04:22:46.947Z,28.98
2022-12-18T04:25:13.289Z,28.63
2022-12-18T04:27:39.620Z,29.04
2022-12-18T04:30:06.001Z,28.24
2022-12-18T04:32:32.349Z,28.38
2022-12-18T04:34:58.686Z,28.39
2022-12-18T04:37:25.064Z,29.77
2022-12-18T04:39:51.455Z,30.04
2022-12-18T04:42:17.868Z,29.80
2022-12-18T04:44:44.250Z,30.39
2022-12-18T04:47:10.621Z,33.80
2022-12-18T04:49:36.952Z,30.81
2022-12-18T04:52:03.287Z,31.35
2022-12-18T04:54:29.676Z,31.42
2022-12-18T04:56:56.055Z,30.87
2022-12-18T04:59:22.454Z,31.09
2022-12-18T05:01:49.916Z,30.90
2022-12-18T05:04:16.451Z,30.10
2022-12-18T05:06:43.100Z,29.69
2022-12-18T05:09:09.457Z,29.67
2022-12-18T05:11:36.078Z,29.44
2022-12-18T05:14:02.475Z,29.94
2022-12-18T05:16:28.974Z,29.93
2022-12-18T05:18:55.419Z,29.94
2022-12-18T05:21:21.775Z,30.25
2022-12-18T05:23:48.126Z,29.39
2022-12-18T05:26:14.506Z,29.45
2022-12-18T05:28:40.851Z,29.61
2022-12-18T05:31:07.334Z,29.51
2022-12-18T05:33:33.771Z,29.21
2022-12-18T05:36:00.160Z,29.55
2022-12-18T05:38:26.548Z,29.35
2022-12-18T05:40:52.942Z,29.31
2022-12-18T05:43:21.373Z,29.73
2022-12-18T05:45:48.089Z,29.16
2022-12-18T05:48:14.470Z,29.18
2022-12-18T05:50:40.828Z,29.53
2022-12-18T05:53:07.163Z,29.56
2022-12-18T05:55:33.527Z,29.65
2022-12-18T05:57:59.906Z,28.84
2022-12-18T06:00:26.253Z,28.46
2022-12-18T06:02:52.747Z,27.37
2022-12-18T06:05:19.278Z,27.19
2022-12-18T06:07:46.514Z,26.96
2022-12-18T06:10:12.865Z,26.42
2022-12-18T06:12:39.245Z,26.98
2022-12-18T06:15:05.803Z,26.92
2022-12-18T06:17:32.151Z,26.98
2022-12-18T06:19:58.529Z,26.38
2022-12-18T06:22:24.925Z,27.65
2022-12-18T06:24:51.285Z,28.72
2022-12-18T06:27:17.931Z,28.13
2022-12-18T06:29:44.492Z,28.07
2022-12-18T06:32:10.945Z,27.39
2022-12-18T06:34:37.348Z,28.06
2022-12-18T06:37:03.703Z,28.18
2022-12-18T06:39:30.086Z,28.51
2022-12-18T06:41:56.470Z,29.02
2022-12-18T06:44:22.945Z,28.17
2022-12-18T06:46:49.330Z,28.24
2022-12-18T06:49:15.692Z,28.88
2022-12-18T06:51:42.063Z,29.17
2022-12-18T06:54:08.394Z,28.86
2022-12-18T06:56:34.739Z,28.89
2022-12-18T06:59:01.086Z,29.41
2022-12-18T07:01:27.518Z,29.02
2022-12-18T07:03:53.956Z,28.81
2022-12-18T07:06:20.360Z,29.43
2022-12-18T07:08:46.751Z,29.55
2022-12-18T07:11:13.098Z,29.08
2022-12-18T07:13:39.858Z,29.16
2022-12-18T07:16:11.195Z,28.89
2022-12-18T07:18:41.526Z,28.82
2022-12-18T07:21:07.924Z,28.96
2022-12-18T07:23:34.280Z,28.97
2022-12-18T07:26:00.686Z,28.18
2022-12-18T07:28:27.074Z,28.50
2022-12-18T07:30:54.583Z,27.90
2022-12-18T07:33:22.587Z,28.13
2022-12-18T07:35:48.937Z,28.72
2022-12-18T07:38:15.326Z,27.98
2022-12-18T07:40:41.701Z,28.78
2022-12-18T07:43:08.043Z,28.52
2022-12-18T07:45:34.436Z,28.70
2022-12-18T07:48:00.825Z,28.24
2022-12-18T07:50:27.163Z,28.22
2022-12-18T07:52:53.499Z,28.49
2022-12-18T07:55:19.886Z,29.24
2022-12-18T07:57:52.549Z,29.37
2022-12-18T08:00:20.664Z,29.10
2022-12-18T08:02:47.869Z,28.93
2022-12-18T08:05:15.067Z,28.93
2022-12-18T08:07:41.417Z,28.04
2022-12-18T08:10:07.806Z,28.67
2022-12-18T08:12:34.190Z,27.93
2022-12-18T08:15:00.738Z,28.88
2022-12-18T08:17:27.131Z,28.37
2022-12-18T08:19:53.517Z,28.26
2022-12-18T08:22:19.926Z,27.69
2022-12-18T08:24:46.299Z,28.30
2022-12-18T08:27:29.006Z,29.00
2022-12-18T08:29:55.984Z,28.31
2022-12-18T08:32:22.438Z,28.72
2022-12-18T08:34:48.847Z,28.54
2022-12-18T08:37:15.246Z,28.29
2022-12-18T08:39:41.608Z,28.73
2022-12-18T08:42:10.216Z,28.85
2022-12-18T08:44:36.877Z,28.51
2022-12-18T08:47:03.212Z,28.03
2022-12-18T08:49:29.595Z,28.69
2022-12-18T08:51:55.946Z,28.65
2022-12-18T08:54:22.283Z,28.48
2022-12-18T08:56:48.626Z,28.31
2022-12-18T08:59:19.489Z,28.29
2022-12-18T09:01:46.289Z,28.82
2022-12-18T09:04:12.727Z,29.44
2022-12-18T09:06:39.129Z,28.04
2022-12-18T09:09:05.962Z,27.86
2022-12-18T09:11:32.331Z,28.01
2022-12-18T09:13:58.741Z,28.38
2022-12-18T09:16:30.349Z,27.36
2022-12-18T09:18:58.555Z,27.77
2022-12-18T09:21:24.917Z,27.44
2022-12-18T09:23:51.310Z,28.44
2022-12-18T09:26:17.690Z,27.72
2022-12-18T09:28:44.174Z,27.16
2022-12-18T09:31:10.744Z,27.51
2022-12-18T09:33:37.119Z,27.86
2022-12-18T09:36:03.627Z,27.55
2022-12-18T09:38:30.141Z,27.30
2022-12-18T09:40:56.530Z,28.33
2022-12-18T09:43:22.879Z,28.75
2022-12-18T09:45:49.278Z,27.03
2022-12-18T09:48:15.697Z,27.54
2022-12-18T09:50:42.088Z,28.05
2022-12-18T09:53:08.477Z,27.28
2022-12-18T09:55:37.511Z,27.00
2022-12-18T09:58:04.149Z,26.78
2022-12-18T10:00:30.506Z,26.08
2022-12-18T10:02:56.985Z,25.68
2022-12-18T10:05:23.464Z,25.50
2022-12-18T10:07:49.818Z,25.58
2022-12-18T10:10:16.190Z,25.85
2022-12-18T10:12:42.545Z,25.63
2022-12-18T10:15:08.938Z,24.51
2022-12-18T10:17:35.307Z,23.82
2022-12-18T10:20:01.643Z,24.34
2022-12-18T10:22:28.032Z,24.83
2022-12-18T10:24:55.253Z,24.09
2022-12-18T10:27:22.100Z,24.70
2022-12-18T10:29:48.501Z,24.37
2022-12-18T10:32:14.849Z,22.92
2022-12-18T10:34:41.407Z,22.17
2022-12-18T10:37:07.766Z,22.29
2022-12-18T10:39:34.166Z,22.81
2022-12-18T10:42:00.518Z,23.80
2022-12-18T10:44:26.860Z,23.20
2022-12-18T10:46:53.320Z,23.19
2022-12-18T10:49:19.780Z,24.53
2022-12-18T10:51:46.177Z,24.13
2022-12-18T10:54:12.561Z,23.22
2022-12-18T10:56:38.913Z,23.75
2022-12-18T10:59:05.903Z,23.83
2022-12-18T11:01:32.515Z,22.68
2022-12-18T11:04:02.056Z,22.77
2022-12-18T11:06:29.170Z,23.28
2022-12-18T11:08:55.549Z,23.02
2022-12-18T11:11:21.907Z,23.42
2022-12-18T11:13:48.250Z,24.25
2022-12-18T11:16:14.687Z,23.69
2022-12-18T11:18:41.325Z,23.74
2022-12-18T11:21:07.947Z,24.50
2022-12-18T11:23:34.281Z,23.84
2022-12-18T11:26:00.669Z,23.54
2022-12-18T11:28:27.019Z,22.71
2022-12-18T11:30:53.439Z,22.17
2022-12-18T11:33:19.849Z,22.86
2022-12-18T11:35:46.197Z,22.64
2022-12-18T11:38:12.535Z,23.08
2022-12-18T11:40:41.382Z,23.25
2022-12-18T11:43:08.050Z,23.03
2022-12-18T11:45:34.556Z,22.67
2022-12-18T11:48:01.867Z,23.20
2022-12-18T11:50:28.207Z,23.25
2022-12-18T11:52:59.284Z,23.04
2022-12-18T11:55:27.928Z,23.27
2022-12-18T11:57:54.286Z,23.24
2022-12-18T12:00:20.692Z,23.34
2022-12-18T12:02:47.263Z,23.08
2022-12-18T12:05:13.723Z,22.75
2022-12-18T12:07:40.115Z,23.15
2022-12-18T12:10:06.471Z,23.00
2022-12-18T12:12:32.812Z,22.49
2022-12-18T12:14:59.217Z,23.24
2022-12-18T12:17:25.607Z,22.78
2022-12-18T12:19:52.005Z,22.55
2022-12-18T12:22:18.363Z,22.39
2022-12-18T12:24:44.705Z,22.35
2022-12-18T12:27:11.090Z,22.60
2022-12-18T12:29:37.629Z,22.91
2022-12-18T12:32:04.083Z,23.65
2022-12-18T12:34:30.457Z,24.76
2022-12-18T12:36:56.846Z,24.32
2022-12-18T12:39:23.238Z,24.19
2022-12-18T12:41:49.608Z,23.72
2022-12-18T12:44:15.946Z,24.38
2022-12-18T12:46:42.792Z,24.91
2022-12-18T12:49:09.131Z,24.46
2022-12-18T12:51:35.543Z,24.06
2022-12-18T12:54:02.075Z,24.39
2022-12-18T12:56:28.458Z,23.72
2022-12-18T12:58:54.863Z,23.37
2022-12-18T13:01:24.173Z,23.91
2022-12-18T13:03:50.769Z,24.43
2022-12-18T13:06:17.850Z,22.59
2022-12-18T13:08:44.626Z,23.63
2022-12-18T13:11:10.957Z,24.05
2022-12-18T13:13:38.706Z,24.95
2022-12-18T13:16:05.273Z,24.26
2022-12-18T13:18:32.887Z,24.19
2022-12-18T13:21:02.904Z,23.96
2022-12-18T13:23:29.880Z,24.11
2022-12-18T13:25:56.293Z,23.26
2022-12-18T13:28:22.927Z,23.31
2022-12-18T13:30:49.313Z,23.42
2022-12-18T13:33:17.111Z,23.60
2022-12-18T13:35:43.926Z,23.54
2022-12-18T13:38:10.352Z,23.47
2022-12-18T13:40:36.880Z,23.59
2022-12-18T13:43:03.263Z,23.62
2022-12-18T13:45:29.666Z,22.27
2022-12-18T13:47:56.196Z,23.28
2022-12-18T13:50:22.550Z,23.35
2022-12-18T13:52:48.979Z,23.03
2022-12-18T13:55:15.371Z,23.16
2022-12-18T13:57:42.138Z,24.21
2022-12-18T14:00:08.657Z,24.32
2022-12-18T14:02:35.643Z,23.68
2022-12-18T14:05:02.315Z,23.50
2022-12-18T14:07:31.160Z,23.52
2022-12-18T14:12:47.237Z,23.54
2022-12-18T14:15:14.550Z,23.36
2022-12-18T14:17:41.350Z,24.82
2022-12-18T14:20:07.741Z,24.74
2022-12-18T14:22:34.094Z,24.58
2022-12-18T14:25:00.462Z,24.81
2022-12-18T14:27:26.855Z,24.79
2022-12-18T14:29:53.227Z,25.10
2022-12-18T14:32:19.639Z,24.96
2022-12-18T14:34:46.024Z,24.35
2022-12-18T14:37:12.371Z,24.82
2022-12-18T14:39:38.714Z,24.43
2022-12-18T14:42:05.092Z,25.00
2022-12-18T14:44:44.258Z,25.63
2022-12-18T14:47:16.908Z,25.27
2022-12-18T14:49:43.643Z,25.11
2022-12-18T14:52:09.989Z,25.50
2022-12-18T14:54:38.001Z,26.06
2022-12-18T14:57:04.371Z,26.94
2022-12-18T14:59:30.755Z,26.38
2022-12-18T15:01:57.174Z,26.19
2022-12-18T15:04:23.700Z,26.06
2022-12-18T15:06:50.056Z,25.94
2022-12-18T15:09:16.405Z,26.14
2022-12-18T15:11:42.940Z,24.96
2022-12-18T15:14:09.576Z,25.02
2022-12-18T15:16:37.378Z,24.92
2022-12-18T15:19:03.905Z,25.44
2022-12-18T15:21:30.303Z,25.99
2022-12-18T15:23:56.690Z,26.18
2022-12-18T15:26:23.079Z,24.82
2022-12-18T15:28:49.456Z,25.24
2022-12-18T15:31:17.423Z,25.70
2022-12-18T15:33:44.528Z,25.08
2022-12-18T15:36:11.061Z,24.84
2022-12-18T15:38:37.474Z,24.75
2022-12-18T15:41:03.819Z,24.31
2022-12-18T15:43:30.203Z,24.46
2022-12-18T15:45:56.571Z,25.82
2022-12-18T15:48:22.931Z,25.23
2022-12-18T15:50:49.326Z,25.35
2022-12-18T15:53:15.670Z,25.92
2022-12-18T15:55:42.045Z,25.10
2022-12-18T15:58:08.437Z,25.45
2022-12-18T16:00:34.833Z,25.59
2022-12-18T16:03:01.318Z,24.71
2022-12-18T16:05:27.927Z,25.61
2022-12-18T16:07:54.321Z,26.39
2022-12-18T16:10:20.663Z,26.28
2022-12-18T16:12:47.063Z,27.60
2022-12-18T16:15:13.444Z,27.82
2022-12-18T16:17:39.790Z,27.41
2022-12-18T16:20:06.126Z,26.59
2022-12-18T16:22:32.474Z,27.27
2022-12-18T16:24:58.808Z,27.33
2022-12-18T16:27:25.144Z,27.85
2022-12-18T16:29:51.531Z,27.50
2022-12-18T16:32:17.907Z,27.17
2022-12-18T16:34:44.242Z,27.23
2022-12-18T16:37:10.587Z,27.78
2022-12-18T16:39:36.924Z,27.54
2022-12-18T16:42:05.613Z,28.41
2022-12-18T16:44:32.466Z,29.32
2022-12-18T16:46:58.854Z,29.71
2022-12-18T16:49:25.258Z,28.62
2022-12-18T16:51:51.652Z,29.70
2022-12-18T16:54:19.685Z,28.72
2022-12-18T16:56:46.360Z,28.14
2022-12-18T16:59:12.737Z,28.58
2022-12-18T17:01:39.222Z,27.52
2022-12-18T17:04:05.701Z,28.19
2022-12-18T17:06:32.105Z,28.81
2022-12-18T17:08:58.465Z,28.97
2022-12-18T17:11:24.803Z,32.79
2022-12-18T17:13:51.521Z,31.72
2022-12-18T17:16:17.930Z,27.65
2022-12-18T17:18:44.358Z,26.79
2022-12-18T17:21:10.751Z,27.89
2022-12-18T17:23:37.174Z,27.79
2022-12-18T17:26:03.625Z,27.69
2022-12-18T17:28:29.983Z,27.43
2022-12-18T17:30:56.339Z,29.57
2022-12-18T17:33:22.719Z,33.71
2022-12-18T17:35:49.108Z,35.10
2022-12-18T17:38:15.502Z,39.45
2022-12-18T17:40:46.261Z,30.35
2022-12-18T17:43:13.019Z,29.82
2022-12-18T17:45:39.385Z,28.95
2022-12-18T17:48:05.769Z,31.57
2022-12-18T17:50:32.115Z,30.73
2022-12-18T17:52:58.490Z,29.75
2022-12-18T17:55:24.877Z,29.70
2022-12-18T17:57:51.224Z,29.68
2022-12-18T18:00:17.595Z,29.58
2022-12-18T18:02:44.076Z,32.61
2022-12-18T18:05:10.599Z,30.73
2022-12-18T18:07:38.546Z,30.87
2022-12-18T18:10:04.998Z,28.78
2022-12-18T18:12:31.382Z,34.49
2022-12-18T18:14:57.738Z,53.54
2022-12-18T18:17:24.274Z,48.42
2022-12-18T18:19:50.615Z,39.80
2022-12-18T18:22:16.981Z,32.72
2022-12-18T18:24:45.075Z,29.95
2022-12-18T18:27:11.435Z,30.50
2022-12-18T18:29:37.964Z,31.90
2022-12-18T18:32:04.473Z,35.03
2022-12-18T18:34:30.925Z,31.60
2022-12-18T18:36:57.279Z,28.78
2022-12-18T18:39:23.654Z,28.89
2022-12-18T18:41:50.039Z,43.50
2022-12-18T18:44:16.393Z,33.96
2022-12-18T18:46:42.782Z,29.59
2022-12-18T18:49:09.128Z,30.09
2022-12-18T18:51:35.576Z,31.03
2022-12-18T18:54:01.985Z,30.95
2022-12-18T18:56:56.494Z,40.24
2022-12-18T18:59:14.705Z,34.22
2022-12-18T19:01:41.286Z,31.89
2022-12-18T19:04:08.898Z,33.50
2022-12-18T19:06:35.389Z,50.18
2022-12-18T19:09:02.611Z,34.64
2022-12-18T19:11:34.536Z,40.80
2022-12-18T19:14:02.824Z,52.56
2022-12-18T19:16:29.262Z,87.38
2022-12-18T19:18:59.996Z,47.45
2022-12-18T19:21:28.309Z,29.51
2022-12-18T19:23:57.518Z,45.94
2022-12-18T19:26:27.855Z,36.57
2022-12-18T19:28:54.752Z,35.59
2022-12-18T19:31:25.444Z,33.42
2022-12-18T19:33:53.553Z,32.35
2022-12-18T19:36:19.908Z,32.60
2022-12-18T19:38:46.405Z,49.84
2022-12-18T19:41:13.028Z,39.80
2022-12-18T19:43:40.303Z,35.65
2022-12-18T19:46:06.692Z,47.71
2022-12-18T19:48:33.098Z,49.37
2022-12-18T19:50:59.443Z,35.45
2022-12-18T19:53:25.824Z,32.16
2022-12-18T19:55:52.235Z,39.95
2022-12-18T19:58:18.630Z,43.75
2022-12-18T20:00:47.797Z,34.35
2022-12-18T20:03:24.279Z,36.22
2022-12-18T20:05:53.611Z,37.26
2022-12-18T20:08:19.991Z,44.63
2022-12-18T20:10:46.331Z,49.07
2022-12-18T20:13:13.256Z,37.62
2022-12-18T20:15:45.117Z,47.57
2022-12-18T20:18:11.921Z,53.56
2022-12-18T20:20:38.361Z,33.99
2022-12-18T20:23:04.861Z,33.96
2022-12-18T20:25:31.361Z,34.29
2022-12-18T20:27:57.737Z,38.58
2022-12-18T20:30:24.137Z,37.97
2022-12-18T20:32:50.500Z,38.03
2022-12-18T20:35:16.919Z,34.61
2022-12-18T20:37:48.732Z,34.39
2022-12-18T20:40:17.161Z,34.57
2022-12-18T20:42:43.558Z,34.43
2022-12-18T20:45:09.911Z,34.13
2022-12-18T20:47:36.286Z,37.50
2022-12-18T20:50:02.681Z,34.33
2022-12-18T20:52:29.032Z,42.58
2022-12-18T20:54:55.385Z,35.94
2022-12-18T20:57:23.414Z,36.96
2022-12-18T20:59:49.790Z,33.81
2022-12-18T21:02:16.296Z,33.09
2022-12-18T21:04:42.792Z,32.78
2022-12-18T21:07:09.154Z,31.09
2022-12-18T21:09:38.037Z,30.74
2022-12-18T21:12:04.985Z,32.81
2022-12-18T21:14:31.511Z,30.76
2022-12-18T21:16:57.935Z,42.81
2022-12-18T21:19:24.306Z,31.98
2022-12-18T21:21:51.370Z,31.74
2022-12-18T21:24:17.906Z,42.98
2022-12-18T21:26:46.106Z,46.35
2022-12-18T21:29:12.757Z,34.18
2022-12-18T21:31:39.359Z,37.38
2022-12-18T21:34:05.686Z,34.95
2022-12-18T21:36:32.024Z,31.84
2022-12-18T21:38:58.542Z,32.40
2022-12-18T21:41:25.046Z,32.81
2022-12-18T21:43:51.708Z,31.44
2022-12-18T21:46:18.115Z,35.14
2022-12-18T21:48:44.519Z,34.59
2022-12-18T21:51:10.917Z,31.10
2022-12-18T21:53:37.261Z,30.09
2022-12-18T21:56:03.642Z,31.53
2022-12-18T21:58:30.035Z,33.96
2022-12-18T22:00:56.421Z,33.47
2022-12-18T22:03:22.897Z,32.15
2022-12-18T22:05:51.980Z,30.13
2022-12-18T22:08:35.435Z,30.16
2022-12-18T22:11:05.882Z,31.32
2022-12-18T22:13:32.256Z,35.18
2022-12-18T22:15:58.696Z,35.26
2022-12-18T22:18:25.146Z,31.43
2022-12-18T22:20:51.495Z,33.64
2022-12-18T22:23:17.825Z,34.35
2022-12-18T22:25:44.159Z,32.05
2022-12-18T22:28:10.546Z,30.58
2022-12-18T22:30:36.899Z,29.29
2022-12-18T22:33:03.235Z,29.40
2022-12-18T22:35:29.571Z,32.31
2022-12-18T22:37:55.923Z,30.83
2022-12-18T22:40:24.684Z,30.52
2022-12-18T22:42:52.886Z,30.40
2022-12-18T22:45:19.279Z,29.44
2022-12-18T22:47:45.654Z,29.33
2022-12-18T22:50:12.025Z,28.63
2022-12-18T22:52:38.420Z,29.20
2022-12-18T22:55:04.812Z,29.62
2022-12-18T22:57:32.861Z,28.68
2022-12-18T23:00:00.755Z,28.47
2022-12-18T23:02:27.200Z,27.73
2022-12-18T23:04:53.631Z,28.10
2022-12-18T23:07:20.018Z,29.02
2022-12-18T23:09:46.390Z,28.48
2022-12-18T23:12:14.741Z,28.48
2022-12-18T23:14:41.096Z,27.76
2022-12-18T23:17:07.443Z,27.50
2022-12-18T23:19:33.826Z,28.25
2022-12-18T23:22:00.174Z,27.97
2022-12-18T23:24:26.537Z,28.35
2022-12-18T23:26:52.911Z,28.04
2022-12-18T23:29:19.309Z,27.66
2022-12-18T23:31:45.747Z,27.93
2022-12-18T23:34:12.192Z,28.59
2022-12-18T23:36:45.515Z,27.63
2022-12-18T23:39:12.482Z,27.46
2022-12-18T23:41:47.214Z,27.51
2022-12-18T23:44:13.547Z,27.16
2022-12-18T23:46:39.953Z,27.10
2022-12-18T23:49:06.633Z,27.51
2022-12-18T23:51:33.087Z,27.24
2022-12-18T23:54:01.222Z,27.92
2022-12-18T23:56:27.600Z,28.59
2022-12-18T23:58:53.972Z,28.58
